Time;durP1;ratioP1;P1;durP2;ratioP2;P2;SDS_P1;SDS_P2;PMS_P1;PMS_P2;Temp;Humidity;BMP_temperature;BMP_pressure;BME280_temperature;BME280_humidity;BME280_pressure;Samples;Min_cycle;Max_cycle;Signal;HPM_P1;HPM_P2
2022/11/25 00:01:27;;;;;;;55.47;5.43;;;;;;;9.09;100.00;100670.22;5078659;28;20031;-79
2022/11/25 00:03:54;;;;;;;42.17;4.88;;;;;;;9.17;100.00;100678.69;5077952;28;20024;-78
2022/11/25 00:06:25;;;;;;;51.83;3.92;;;;;;;9.10;100.00;100667.38;5078522;28;20047;-79
2022/11/25 00:08:54;;;;;;;55.85;4.50;;;;;;;9.10;100.00;100663.75;5086684;28;20032;-81
2022/11/25 00:11:20;;;;;;;45.78;4.15;;;;;;;9.08;100.00;100658.41;5082327;28;20051;-79
2022/11/25 00:13:46;;;;;;;44.58;4.93;;;;;;;9.11;100.00;100655.44;5072642;28;20171;-79
2022/11/25 00:16:14;;;;;;;56.78;5.80;;;;;;;9.23;100.00;100655.50;5049541;28;20059;-80
2022/11/25 00:18:43;;;;;;;45.05;3.95;;;;;;;9.15;100.00;100654.22;5082645;28;20490;-80
2022/11/25 00:21:12;;;;;;;45.38;4.20;;;;;;;9.26;100.00;100660.72;5084019;28;20037;-79
2022/11/25 00:23:38;;;;;;;39.85;4.80;;;;;;;9.22;100.00;100643.69;5073079;28;20048;-80
2022/11/25 00:26:08;;;;;;;40.10;3.30;;;;;;;9.20;100.00;100648.41;5069482;28;20081;-79
2022/11/25 00:28:33;;;;;;;50.20;4.78;;;;;;;9.21;100.00;100647.41;5079114;28;20031;-80
2022/11/25 00:31:09;;;;;;;56.20;4.85;;;;;;;9.24;100.00;100640.84;5072324;28;20032;-79
2022/11/25 00:33:35;;;;;;;42.30;4.25;;;;;;;9.16;100.00;100614.13;5087434;28;20055;-80
2022/11/25 00:36:05;;;;;;;40.88;4.97;;;;;;;9.29;100.00;100628.56;5071473;28;20082;-80
2022/11/25 00:38:30;;;;;;;44.17;3.33;;;;;;;9.34;100.00;100629.06;5079856;28;20157;-80
2022/11/25 00:46:25;;;;;;;45.10;4.07;;;;;;;9.19;100.00;100609.28;5079416;28;20097;-79
2022/11/25 00:48:50;;;;;;;48.05;5.28;;;;;;;9.26;100.00;100617.00;5087715;28;20468;-79
2022/11/25 00:51:16;;;;;;;49.45;4.45;;;;;;;9.23;100.00;100609.03;5044690;28;20039;-78
2022/11/25 00:53:41;;;;;;;51.05;3.80;;;;;;;9.34;100.00;100603.63;5091913;28;20353;-79
2022/11/25 00:56:12;;;;;;;39.55;5.60;;;;;;;9.42;100.00;100611.22;5055611;28;20035;-79
2022/11/25 00:58:39;;;;;;;38.20;4.40;;;;;;;9.45;100.00;100616.47;5073771;28;20059;-79
2022/11/25 01:01:04;;;;;;;50.55;4.85;;;;;;;9.38;100.00;100618.81;5090261;28;20032;-78
2022/11/25 01:03:30;;;;;;;41.88;5.05;;;;;;;9.49;100.00;100623.41;5071890;28;20498;-78
2022/11/25 01:06:08;;;;;;;47.45;4.13;;;;;;;9.43;100.00;100629.34;5078074;28;20039;-79
2022/11/25 01:08:35;;;;;;;39.33;3.40;;;;;;;9.46;100.00;100632.72;5074854;28;20059;-79
2022/11/25 01:11:04;;;;;;;45.33;5.05;;;;;;;9.35;100.00;100633.56;5070698;28;20024;-79
2022/11/25 01:13:29;;;;;;;54.00;5.50;;;;;;;9.38;100.00;100627.84;5090173;28;20036;-78
2022/11/25 01:15:55;;;;;;;52.90;4.97;;;;;;;9.46;100.00;100626.38;5088268;28;20487;-78
2022/11/25 01:18:20;;;;;;;56.60;3.90;;;;;;;9.52;100.00;100636.84;5066677;28;20506;-78
2022/11/25 01:20:46;;;;;;;57.08;4.70;;;;;;;9.45;100.00;100632.84;5084562;28;20063;-79
2022/11/25 01:23:11;;;;;;;46.75;4.72;;;;;;;9.50;100.00;100633.34;5065623;28;20025;-80
2022/11/25 01:25:38;;;;;;;35.03;4.38;;;;;;;9.52;100.00;100634.09;5088037;28;20151;-78
2022/11/25 01:28:03;;;;;;;46.60;3.88;;;;;;;9.48;100.00;100638.09;5087438;28;20467;-79
2022/11/25 01:30:29;;;;;;;44.88;4.80;;;;;;;9.50;100.00;100647.88;5058043;28;20074;-79
2022/11/25 01:32:55;;;;;;;48.80;3.75;;;;;;;9.50;100.00;100636.94;5055947;28;20033;-78
2022/11/25 01:35:20;;;;;;;39.08;4.78;;;;;;;9.43;100.00;100651.22;5075469;28;20066;-78
2022/11/25 01:37:46;;;;;;;45.20;4.28;;;;;;;9.52;100.00;100647.78;5075175;28;20024;-79
2022/11/25 01:40:12;;;;;;;43.95;5.28;;;;;;;9.49;100.00;100646.13;5069840;28;20155;-78
2022/11/25 01:42:42;;;;;;;61.08;3.95;;;;;;;9.57;100.00;100640.97;5070821;28;20104;-79
2022/11/25 01:45:30;;;;;;;58.05;4.65;;;;;;;9.59;100.00;100640.81;5065348;28;20036;-78
2022/11/25 01:48:02;;;;;;;52.33;4.32;;;;;;;9.46;100.00;100643.66;5070666;28;20051;-78
2022/11/25 01:50:28;;;;;;;63.60;4.90;;;;;;;9.51;100.00;100646.91;5084951;28;20032;-78
2022/11/25 01:52:55;;;;;;;39.05;3.33;;;;;;;9.60;100.00;100650.78;5065570;28;20051;-78
2022/11/25 01:55:25;;;;;;;48.08;4.28;;;;;;;9.63;100.00;100645.06;5070507;28;20047;-78
2022/11/25 01:57:57;;;;;;;42.75;4.50;;;;;;;9.58;100.00;100650.03;5075318;28;20036;-77
2022/11/25 02:00:24;;;;;;;47.40;4.60;;;;;;;9.56;100.00;100655.63;5077797;28;20475;-79
2022/11/25 02:02:52;;;;;;;54.13;6.10;;;;;;;9.57;100.00;100649.16;5100937;28;20103;-79
2022/11/25 02:05:29;;;;;;;57.13;5.53;;;;;;;9.49;100.00;100656.19;5067548;28;20047;-79
2022/11/25 02:07:56;;;;;;;46.15;4.70;;;;;;;9.52;100.00;100655.97;5079034;28;20507;-79
2022/11/25 02:10:26;;;;;;;54.55;5.60;;;;;;;9.61;100.00;100659.81;5073440;28;20081;-80
2022/11/25 02:12:52;;;;;;;72.90;5.45;;;;;;;9.57;100.00;100651.91;5084395;28;20047;-79
2022/11/25 02:15:18;;;;;;;56.10;4.32;;;;;;;9.66;100.00;100646.69;5085787;28;20049;-79
2022/11/25 02:17:44;;;;;;;53.45;4.78;;;;;;;9.62;100.00;100658.84;5057587;28;20037;-78
2022/11/25 02:20:15;;;;;;;48.38;3.97;;;;;;;9.66;100.00;100650.28;5073670;28;20438;-79
2022/11/25 02:22:59;;;;;;;46.10;5.20;;;;;;;9.73;100.00;100661.63;5090638;28;20032;-79
2022/11/25 02:25:37;;;;;;;61.90;5.47;;;;;;;9.57;100.00;100664.66;5088018;28;20057;-79
2022/11/25 02:28:07;;;;;;;54.97;4.80;;;;;;;9.63;100.00;100664.19;5093271;28;20135;-79
2022/11/25 02:30:34;;;;;;;51.92;5.35;;;;;;;9.64;100.00;100667.78;5085291;28;20037;-79
2022/11/25 02:33:00;;;;;;;44.28;3.65;;;;;;;9.71;100.00;100678.13;5086268;28;20034;-78
2022/11/25 02:35:27;;;;;;;65.72;6.00;;;;;;;9.76;100.00;100675.06;5063539;28;20120;-78
2022/11/25 02:37:57;;;;;;;71.00;5.53;;;;;;;9.85;100.00;100677.03;5091462;28;20032;-80
2022/11/25 02:40:24;;;;;;;41.10;4.05;;;;;;;9.85;100.00;100689.84;5090338;28;20089;-79
2022/11/25 02:42:51;;;;;;;53.55;5.00;;;;;;;9.70;100.00;100689.19;5092725;28;20032;-79
2022/11/25 02:45:25;;;;;;;61.60;5.90;;;;;;;9.71;100.00;100689.06;5038961;28;20140;-79
2022/11/25 02:47:51;;;;;;;61.80;4.95;;;;;;;9.56;100.00;100685.69;5074630;28;20028;-79
2022/11/25 02:50:16;;;;;;;27.00;3.85;;;;;;;9.64;100.00;100689.66;5056472;28;20035;-79
2022/11/25 02:52:42;;;;;;;49.55;4.38;;;;;;;9.72;100.00;100701.75;5073134;28;20372;-79
2022/11/25 02:55:08;;;;;;;57.45;4.70;;;;;;;9.62;100.00;100700.72;5082667;28;20048;-79
2022/11/25 02:57:33;;;;;;;45.65;5.90;;;;;;;9.47;100.00;100697.31;5087812;28;20388;-79
2022/11/25 02:59:58;;;;;;;56.97;3.85;;;;;;;9.43;100.00;100701.28;5076128;28;20036;-79
2022/11/25 03:02:24;;;;;;;55.75;5.32;;;;;;;9.55;100.00;100697.59;5086814;28;20046;-80
2022/11/25 03:04:49;;;;;;;59.53;4.30;;;;;;;9.67;100.00;100708.56;5091352;28;20059;-79
2022/11/25 03:07:15;;;;;;;47.55;4.05;;;;;;;9.68;100.00;100704.84;5091621;28;20376;-79
2022/11/25 03:09:41;;;;;;;57.63;4.28;;;;;;;9.66;100.00;100717.78;5075914;28;20035;-79
2022/11/25 03:12:19;;;;;;;49.80;4.90;;;;;;;9.47;100.00;100723.78;5084142;28;20074;-79
2022/11/25 03:14:44;;;;;;;49.05;3.75;;;;;;;9.48;100.00;100722.81;5068906;28;20043;-79
2022/11/25 03:17:09;;;;;;;39.65;4.05;;;;;;;9.63;100.00;100713.41;5062575;28;20064;-79
2022/11/25 03:19:35;;;;;;;44.90;3.95;;;;;;;9.50;100.00;100709.88;5057620;28;20396;-79
2022/11/25 03:22:00;;;;;;;48.03;4.18;;;;;;;9.42;100.00;100705.00;5068128;28;20047;-79
2022/11/25 03:24:26;;;;;;;35.38;4.47;;;;;;;9.56;100.00;100706.69;5090434;28;20127;-79
2022/11/25 03:26:51;;;;;;;55.58;4.93;;;;;;;9.41;100.00;100707.84;5071242;28;20044;-79
2022/11/25 03:29:16;;;;;;;50.42;4.60;;;;;;;9.35;100.00;100701.88;5092266;28;20036;-79
2022/11/25 03:31:42;;;;;;;45.22;4.47;;;;;;;9.28;100.00;100699.72;5071721;28;20365;-79
2022/11/25 03:34:07;;;;;;;51.05;3.65;;;;;;;9.32;100.00;100696.63;5087179;28;20400;-79
2022/11/25 03:36:33;;;;;;;49.45;4.10;;;;;;;9.28;100.00;100676.00;5040805;28;20040;-78
2022/11/25 03:38:58;;;;;;;38.88;4.90;;;;;;;9.24;100.00;100669.03;5086278;28;20039;-78
2022/11/25 03:41:24;;;;;;;30.02;3.22;;;;;;;9.19;100.00;100663.91;5058308;28;20044;-79
2022/11/25 03:43:49;;;;;;;55.53;5.32;;;;;;;9.07;100.00;100650.31;5056960;28;20502;-79
2022/11/25 03:46:14;;;;;;;46.22;3.70;;;;;;;9.08;100.00;100646.59;5053403;28;20059;-79
2022/11/25 03:48:40;;;;;;;37.75;4.18;;;;;;;9.04;100.00;100620.53;5047274;28;20075;-79
2022/11/25 03:51:05;;;;;;;38.28;4.03;;;;;;;8.99;100.00;100635.41;5075374;28;20051;-79
2022/11/25 03:53:31;;;;;;;34.58;5.18;;;;;;;9.07;100.00;100651.22;5077772;28;20032;-79
2022/11/25 03:55:56;;;;;;;49.42;4.93;;;;;;;9.01;100.00;100644.34;5088778;28;20563;-79
2022/11/25 03:58:22;;;;;;;38.05;4.45;;;;;;;9.02;100.00;100653.44;5057839;28;20123;-79
2022/11/25 04:00:47;;;;;;;63.13;6.10;;;;;;;9.06;100.00;100654.06;5089130;28;20067;-79
2022/11/25 04:03:13;;;;;;;52.13;5.32;;;;;;;8.73;100.00;100631.06;5059459;28;20491;-79
2022/11/25 04:05:38;;;;;;;52.25;5.68;;;;;;;8.80;100.00;100643.25;5071506;28;20494;-79
2022/11/25 04:08:04;;;;;;;55.28;5.20;;;;;;;8.90;100.00;100668.84;5087981;28;20035;-79
2022/11/25 04:10:29;;;;;;;39.08;3.90;;;;;;;8.94;100.00;100684.03;5072592;28;20089;-78
2022/11/25 04:12:55;;;;;;;45.53;4.90;;;;;;;8.87;100.00;100699.16;5055128;28;20073;-78
2022/11/25 04:15:21;;;;;;;48.15;4.65;;;;;;;8.90;100.00;100701.63;5066786;28;20044;-79
2022/11/25 04:17:46;;;;;;;53.97;5.70;;;;;;;8.81;100.00;100686.81;5087753;28;20031;-78
2022/11/25 04:20:13;;;;;;;47.33;4.95;;;;;;;8.94;100.00;100708.59;5085243;28;20040;-78
2022/11/25 04:22:39;;;;;;;46.88;4.85;;;;;;;8.85;100.00;100728.41;5085411;28;20040;-79
2022/11/25 04:25:05;;;;;;;33.10;5.22;;;;;;;8.87;100.00;100739.19;5090046;28;20391;-78
2022/11/25 04:27:30;;;;;;;44.05;5.22;;;;;;;8.90;100.00;100742.56;5093340;28;20044;-78
2022/11/25 04:29:56;;;;;;;43.75;4.47;;;;;;;8.76;100.00;100748.19;5074516;28;20036;-78
2022/11/25 04:32:21;;;;;;;49.80;4.50;;;;;;;8.75;100.00;100749.19;5062384;28;20032;-78
2022/11/25 04:34:47;;;;;;;64.38;4.38;;;;;;;8.71;100.00;100743.06;5091650;28;20040;-79
2022/11/25 04:37:12;;;;;;;38.15;3.85;;;;;;;8.76;100.00;100750.94;5091937;28;20129;-79
2022/11/25 04:39:37;;;;;;;38.80;3.92;;;;;;;8.67;100.00;100747.00;5055906;28;20033;-78
2022/11/25 04:44:47;;;;;;;34.78;4.78;;;;;;;8.64;100.00;100761.75;5081115;28;20028;-78
2022/11/25 04:47:12;;;;;;;32.30;3.85;;;;;;;8.65;100.00;100757.16;5063224;28;20043;-79
2022/11/25 04:49:38;;;;;;;34.92;3.40;;;;;;;8.65;100.00;100766.22;5077972;28;20028;-79
2022/11/25 04:52:03;;;;;;;28.35;3.88;;;;;;;8.68;100.00;100761.53;5060327;28;20543;-79
2022/11/25 04:54:29;;;;;;;38.65;4.32;;;;;;;8.71;100.00;100775.81;5040815;28;20085;-78
2022/11/25 04:56:54;;;;;;;29.27;3.40;;;;;;;8.76;100.00;100784.56;5081904;28;20046;-78
2022/11/25 04:59:38;;;;;;;20.05;2.90;;;;;;;8.76;100.00;100790.00;5077427;28;20051;-78
2022/11/25 05:02:21;;;;;;;27.00;3.28;;;;;;;8.77;100.00;100790.88;5060765;28;20043;-79
2022/11/25 05:04:49;;;;;;;34.13;3.97;;;;;;;8.77;100.00;100799.06;5092507;28;20051;-79
2022/11/25 05:07:19;;;;;;;13.70;2.20;;;;;;;8.74;100.00;100791.09;5095759;28;20032;-79
2022/11/25 05:09:45;;;;;;;19.20;2.72;;;;;;;8.76;100.00;100795.47;5095550;28;20043;-79
2022/11/25 05:12:17;;;;;;;13.32;2.60;;;;;;;8.80;100.00;100796.13;5075623;28;20043;-79
2022/11/25 05:14:43;;;;;;;17.70;2.63;;;;;;;8.74;100.00;100800.19;5092472;28;20419;-79
2022/11/25 05:17:17;;;;;;;25.50;3.00;;;;;;;8.77;100.00;100804.53;5049070;28;20162;-79
2022/11/25 05:19:43;;;;;;;16.23;2.42;;;;;;;8.71;100.00;100807.72;5076625;28;20040;-79
2022/11/25 05:22:13;;;;;;;21.15;3.13;;;;;;;8.76;100.00;100797.34;5088111;28;20074;-79
2022/11/25 05:24:39;;;;;;;18.85;2.42;;;;;;;8.70;100.00;100790.44;5062550;28;20036;-79
2022/11/25 05:27:04;;;;;;;11.85;2.13;;;;;;;8.72;100.00;100810.31;5058538;28;20039;-80
2022/11/25 05:29:30;;;;;;;11.07;2.00;;;;;;;8.57;100.00;100804.09;5084842;28;20040;-80
2022/11/25 05:31:55;;;;;;;13.05;2.00;;;;;;;8.54;100.00;100812.50;5085849;28;20400;-79
2022/11/25 05:34:21;;;;;;;9.52;2.15;;;;;;;8.55;100.00;100803.34;5051271;28;20151;-80
2022/11/25 05:36:46;;;;;;;11.30;1.90;;;;;;;8.48;100.00;100817.53;5047803;28;20388;-78
2022/11/25 05:39:12;;;;;;;15.30;2.15;;;;;;;8.48;100.00;100802.06;5049369;28;20469;-78
2022/11/25 05:41:37;;;;;;;20.92;2.10;;;;;;;8.44;100.00;100812.31;5069655;28;20028;-80
2022/11/25 05:44:04;;;;;;;13.38;2.15;;;;;;;8.42;100.00;100808.75;5055544;28;20543;-81
2022/11/25 05:46:29;;;;;;;13.43;2.40;;;;;;;8.46;100.00;100807.63;5067780;28;20060;-79
2022/11/25 05:48:55;;;;;;;15.88;2.35;;;;;;;8.42;100.00;100808.75;5041781;28;20134;-80
2022/11/25 05:51:21;;;;;;;19.40;2.75;;;;;;;8.40;100.00;100808.00;5051874;28;20070;-79
2022/11/25 05:53:47;;;;;;;10.15;1.70;;;;;;;8.25;100.00;100809.97;5070363;28;20036;-80
2022/11/25 05:56:12;;;;;;;8.52;1.65;;;;;;;8.12;100.00;100811.81;5073067;28;20059;-80
2022/11/25 05:58:38;;;;;;;13.15;2.20;;;;;;;8.08;100.00;100796.63;5055231;28;20411;-80
2022/11/25 06:01:08;;;;;;;9.52;2.20;;;;;;;8.02;100.00;100795.22;5071812;28;20095;-79
2022/11/25 06:03:34;;;;;;;30.40;3.20;;;;;;;8.08;100.00;100804.81;5084002;28;20372;-79
2022/11/25 06:05:59;;;;;;;13.10;2.90;;;;;;;8.05;100.00;100813.19;5059010;28;20559;-79
2022/11/25 06:08:26;;;;;;;8.75;2.05;;;;;;;8.08;100.00;100808.44;5075696;28;20056;-80
2022/11/25 06:10:52;;;;;;;9.00;2.28;;;;;;;8.09;100.00;100817.47;5069721;28;20033;-79
2022/11/25 06:13:19;;;;;;;13.57;2.20;;;;;;;7.99;100.00;100827.28;5083308;28;20036;-78
2022/11/25 06:15:45;;;;;;;18.08;2.33;;;;;;;8.00;100.00;100829.00;5081465;28;20460;-79
2022/11/25 06:18:12;;;;;;;13.95;2.22;;;;;;;8.08;100.00;100824.78;5088743;28;20036;-79
2022/11/25 06:20:38;;;;;;;8.20;2.00;;;;;;;8.09;100.00;100825.66;5078366;28;21766;-79
2022/11/25 06:23:04;;;;;;;12.38;2.72;;;;;;;8.12;100.00;100825.44;5087369;28;20063;-79
2022/11/25 06:25:30;;;;;;;9.63;2.08;;;;;;;8.08;100.00;100829.34;5064495;28;20064;-78
2022/11/25 06:27:55;;;;;;;19.00;2.92;;;;;;;8.12;100.00;100839.09;5081418;28;20115;-79
2022/11/25 06:30:21;;;;;;;8.45;2.00;;;;;;;8.22;100.00;100850.22;5083054;28;20122;-79
2022/11/25 06:32:46;;;;;;;15.48;2.17;;;;;;;8.12;100.00;100846.38;5072303;28;20546;-79
2022/11/25 06:35:12;;;;;;;14.05;2.40;;;;;;;8.07;100.00;100847.56;5057542;28;20078;-79
2022/11/25 06:37:38;;;;;;;21.67;2.40;;;;;;;8.08;100.00;100856.63;5083142;28;20043;-78
2022/11/25 06:40:04;;;;;;;16.83;3.03;;;;;;;8.09;100.00;100845.59;5075550;28;20077;-78
2022/11/25 06:42:30;;;;;;;14.10;2.17;;;;;;;8.05;100.00;100855.00;5075334;28;20044;-79
2022/11/25 06:44:55;;;;;;;15.93;2.58;;;;;;;8.04;100.00;100855.97;5080981;28;20031;-79
2022/11/25 06:47:20;;;;;;;16.27;3.03;;;;;;;8.03;100.00;100865.09;5092224;28;20107;-79
2022/11/25 06:49:49;;;;;;;19.48;2.95;;;;;;;8.05;100.00;100874.09;5092996;28;20047;-79
2022/11/25 06:52:15;;;;;;;20.55;3.33;;;;;;;7.99;100.00;100871.75;5092346;28;20058;-78
2022/11/25 06:54:40;;;;;;;13.30;2.28;;;;;;;7.97;100.00;100875.56;5057187;28;20032;-79
2022/11/25 06:57:10;;;;;;;12.73;2.97;;;;;;;8.08;100.00;100887.50;5082261;28;20024;-79
2022/11/25 06:59:36;;;;;;;11.13;2.60;;;;;;;8.05;100.00;100878.63;5076633;28;20036;-78
2022/11/25 07:02:05;;;;;;;12.55;2.72;;;;;;;8.07;100.00;100890.34;5089902;28;20115;-79
2022/11/25 07:04:33;;;;;;;12.80;2.13;;;;;;;8.00;100.00;100883.53;5063680;28;20117;-79
2022/11/25 07:06:58;;;;;;;10.52;2.25;;;;;;;7.90;100.00;100884.19;5093431;28;20032;-79
2022/11/25 07:09:23;;;;;;;15.60;2.63;;;;;;;7.91;100.00;100880.47;5055356;28;20045;-80
2022/11/25 07:11:49;;;;;;;14.38;2.67;;;;;;;7.94;100.00;100894.88;5069606;28;20093;-79
2022/11/25 07:14:15;;;;;;;14.10;2.53;;;;;;;7.95;100.00;100897.47;5049845;28;20029;-79
2022/11/25 07:16:43;;;;;;;11.77;2.55;;;;;;;7.85;100.00;100896.34;5060610;28;20476;-79
2022/11/25 07:19:11;;;;;;;16.30;2.72;;;;;;;7.88;100.00;100912.50;5070303;28;20028;-79
2022/11/25 07:21:36;;;;;;;13.95;2.75;;;;;;;7.83;100.00;100906.50;5103689;28;20118;-79
2022/11/25 07:24:04;;;;;;;24.67;3.00;;;;;;;7.87;100.00;100910.75;5082463;28;20051;-79
2022/11/25 07:26:32;;;;;;;17.00;3.40;;;;;;;7.86;100.00;100928.09;5090157;28;20028;-79
2022/11/25 07:29:04;;;;;;;14.43;3.70;;;;;;;7.70;100.00;100922.78;5064133;28;20080;-78
2022/11/25 07:31:32;;;;;;;17.50;3.28;;;;;;;7.74;100.00;100918.91;5067960;28;20036;-78
2022/11/25 07:34:03;;;;;;;22.17;2.85;;;;;;;7.74;100.00;100918.91;5081866;28;20060;-78
2022/11/25 07:36:30;;;;;;;19.33;2.63;;;;;;;7.70;100.00;100928.22;5082292;28;20031;-78
2022/11/25 07:38:57;;;;;;;22.38;3.00;;;;;;;7.73;100.00;100930.75;5058293;28;20047;-79
2022/11/25 07:41:24;;;;;;;23.73;3.38;;;;;;;7.76;100.00;100933.28;5065544;28;20044;-78
2022/11/25 07:43:53;;;;;;;13.70;2.90;;;;;;;7.76;100.00;100943.31;5068807;28;20438;-79
2022/11/25 07:46:24;;;;;;;17.38;3.63;;;;;;;7.76;100.00;100952.38;5084570;28;20036;-78
2022/11/25 07:48:52;;;;;;;14.68;2.97;;;;;;;7.78;100.00;100963.16;5086666;28;20479;-79
2022/11/25 07:51:23;;;;;;;23.90;3.67;;;;;;;7.78;100.00;100968.63;5081627;28;20062;-79
2022/11/25 07:53:50;;;;;;;17.00;3.20;;;;;;;7.76;100.00;100973.31;5084943;28;20036;-79
2022/11/25 07:56:16;;;;;;;16.63;3.72;;;;;;;7.87;100.00;100977.06;5052148;28;20485;-80
2022/11/25 07:58:43;;;;;;;30.77;3.47;;;;;;;7.83;100.00;100975.50;5087328;28;20043;-82
2022/11/25 08:01:11;;;;;;;12.05;3.30;;;;;;;7.77;100.00;100984.06;5093310;28;20117;-82
2022/11/25 08:03:38;;;;;;;15.07;3.65;;;;;;;7.73;100.00;100986.13;5070771;28;20029;-82
2022/11/25 08:06:09;;;;;;;23.05;3.92;;;;;;;7.76;100.00;100993.25;5069479;28;20085;-82
2022/11/25 08:08:37;;;;;;;17.35;3.55;;;;;;;7.78;100.00;100998.59;5103732;28;20104;-83
2022/11/25 08:11:11;;;;;;;21.63;3.95;;;;;;;7.78;100.00;101004.06;5070646;28;20035;-82
2022/11/25 08:13:37;;;;;;;15.48;3.30;;;;;;;7.88;100.00;101005.19;5073916;28;20059;-81
2022/11/25 08:16:04;;;;;;;17.50;3.08;;;;;;;7.91;100.00;101007.72;5089671;28;20051;-80
2022/11/25 08:18:29;;;;;;;12.73;3.10;;;;;;;7.95;100.00;101008.38;5094526;28;20029;-80
2022/11/25 08:20:59;;;;;;;17.80;3.25;;;;;;;7.96;100.00;101001.97;5056824;28;20143;-82
2022/11/25 08:23:25;;;;;;;22.30;3.13;;;;;;;8.06;100.00;101014.88;5080624;28;20103;-83
2022/11/25 08:25:51;;;;;;;15.73;3.38;;;;;;;7.97;100.00;100992.78;5090635;28;20065;-82
2022/11/25 08:28:16;;;;;;;16.50;3.45;;;;;;;8.05;100.00;101006.81;5071036;28;20116;-84
2022/11/25 08:30:42;;;;;;;19.70;3.50;;;;;;;8.02;100.00;101018.81;5079089;28;20032;-84
2022/11/25 08:33:07;;;;;;;16.95;3.38;;;;;;;8.10;100.00;101023.75;5077372;28;20073;-82
2022/11/25 08:35:36;;;;;;;13.77;3.42;;;;;;;8.09;100.00;101032.91;5079738;28;20051;-83
2022/11/25 08:38:07;;;;;;;12.20;2.90;;;;;;;8.06;100.00;101030.38;5040953;28;20096;-84
2022/11/25 08:40:34;;;;;;;18.38;2.88;;;;;;;8.17;100.00;101036.00;5078119;28;20069;-84
2022/11/25 08:43:00;;;;;;;15.50;3.40;;;;;;;8.15;100.00;101040.69;5084348;28;20486;-83
2022/11/25 08:45:26;;;;;;;27.35;3.45;;;;;;;8.14;100.00;101027.16;5062758;28;20119;-82
2022/11/25 08:47:51;;;;;;;15.70;3.75;;;;;;;8.03;100.00;101019.66;5099579;28;20036;-81
2022/11/25 08:50:17;;;;;;;15.88;3.67;;;;;;;8.06;100.00;101025.78;5068379;28;20028;-80
2022/11/25 08:52:42;;;;;;;16.77;3.47;;;;;;;8.14;100.00;101029.88;5058964;28;20036;-81
2022/11/25 08:55:08;;;;;;;8.85;2.65;;;;;;;8.12;100.00;101027.25;5068177;28;20080;-80
2022/11/25 08:57:34;;;;;;;27.58;4.55;;;;;;;8.14;100.00;101021.69;5093189;28;20032;-81
2022/11/25 08:59:59;;;;;;;17.08;3.25;;;;;;;8.28;100.00;101051.66;5069617;28;20028;-81
2022/11/25 09:02:25;;;;;;;14.10;3.22;;;;;;;8.36;100.00;101053.88;5102215;28;20074;-81
2022/11/25 09:04:51;;;;;;;19.20;5.18;;;;;;;8.46;100.00;101060.47;5085232;28;20044;-81
2022/11/25 09:07:17;;;;;;;20.08;4.25;;;;;;;8.43;100.00;101047.94;5054203;28;20032;-82
2022/11/25 09:09:42;;;;;;;20.98;4.50;;;;;;;8.50;100.00;101053.84;5063902;28;20032;-82
2022/11/25 09:12:08;;;;;;;17.48;3.83;;;;;;;8.57;100.00;101066.09;5034430;28;20055;-82
2022/11/25 09:14:33;;;;;;;17.88;4.40;;;;;;;8.68;100.00;101064.50;5055098;28;20067;-82
2022/11/25 09:17:00;;;;;;;14.73;3.95;;;;;;;8.80;100.00;101069.97;5066253;28;20052;-82
2022/11/25 09:19:27;;;;;;;17.83;4.45;;;;;;;8.93;100.00;101091.88;5049238;28;20063;-82
2022/11/25 09:21:53;;;;;;;14.90;3.85;;;;;;;9.18;100.00;101090.19;5083072;28;20378;-82
2022/11/25 09:24:19;;;;;;;13.77;3.47;;;;;;;9.08;100.00;101086.34;5070159;28;20032;-82
2022/11/25 09:26:45;;;;;;;12.25;3.53;;;;;;;9.26;100.00;101095.13;5079068;28;20388;-82
2022/11/25 09:29:12;;;;;;;12.00;3.42;;;;;;;9.27;100.00;101091.41;5065433;28;20467;-81
2022/11/25 09:31:38;;;;;;;14.27;3.25;;;;;;;9.30;100.00;101100.25;5071138;28;20032;-81
2022/11/25 09:34:04;;;;;;;10.88;2.95;;;;;;;9.59;100.00;101107.38;5077623;28;20051;-81
2022/11/25 09:36:29;;;;;;;9.68;2.80;;;;;;;9.50;100.00;101109.78;5101476;28;20115;-82
2022/11/25 09:38:54;;;;;;;10.05;2.90;;;;;;;9.68;100.00;101113.06;5069295;28;20126;-82
2022/11/25 09:47:50;;;;;;;18.08;4.30;;;;;;;9.76;100.00;101120.75;5079059;28;20123;-80
2022/11/25 09:50:32;;;;;;;16.60;3.08;;;;;;;10.06;100.00;101128.56;5096369;28;20028;-80
2022/11/25 09:53:18;;;;;;;16.35;3.83;;;;;;;9.85;100.00;101133.72;5079374;28;20555;-81
2022/11/25 09:55:48;;;;;;;17.02;3.45;;;;;;;9.81;100.00;101137.69;5077298;28;20392;-80
2022/11/25 09:58:34;;;;;;;13.40;2.60;;;;;;;9.88;100.00;101143.59;5060992;28;20028;-81
2022/11/25 10:01:05;;;;;;;13.50;2.75;;;;;;;9.84;100.00;101133.84;5077902;28;20082;-80
2022/11/25 10:03:42;;;;;;;14.98;2.63;;;;;;;9.91;100.00;101141.50;5092691;28;20121;-81
2022/11/25 10:06:16;;;;;;;18.48;3.17;;;;;;;9.98;100.00;101144.66;5074241;28;20403;-81
2022/11/25 10:08:50;;;;;;;18.67;3.47;;;;;;;9.99;100.00;101151.91;5084422;28;20471;-83
2022/11/25 10:11:16;;;;;;;29.23;3.00;;;;;;;10.14;100.00;101149.91;5090315;28;20052;-82
2022/11/25 10:13:59;;;;;;;15.95;3.17;;;;;;;10.17;100.00;101159.78;5067371;28;20024;-83
2022/11/25 10:16:33;;;;;;;14.75;3.45;;;;;;;10.30;100.00;101160.63;5067950;28;20119;-82
2022/11/25 10:19:01;;;;;;;20.45;3.38;;;;;;;10.27;100.00;101152.63;5098344;28;20078;-82
2022/11/25 10:21:27;;;;;;;16.50;3.55;;;;;;;10.36;100.00;101159.31;5082614;28;20031;-82
2022/11/25 10:23:53;;;;;;;12.85;3.00;;;;;;;10.37;100.00;101161.94;5094731;28;20032;-82
2022/11/25 10:26:24;;;;;;;11.55;2.95;;;;;;;10.42;100.00;101153.41;5063258;28;20024;-82
2022/11/25 10:29:04;;;;;;;15.18;3.70;;;;;;;10.64;100.00;101180.06;5098979;28;20487;-82
2022/11/25 10:31:35;;;;;;;18.08;3.95;;;;;;;10.82;100.00;101181.44;5076098;28;20036;-82
2022/11/25 10:34:09;;;;;;;16.38;3.17;;;;;;;10.87;100.00;101183.84;5069648;28;20028;-83
2022/11/25 10:36:38;;;;;;;13.85;3.05;;;;;;;10.98;100.00;101183.88;5098426;28;20059;-82
2022/11/25 10:39:23;;;;;;;13.30;3.20;;;;;;;10.98;100.00;101194.81;5079173;28;20040;-81
2022/11/25 10:41:58;;;;;;;12.02;3.60;;;;;;;10.91;100.00;101189.94;5078159;28;20036;-83
2022/11/25 10:44:25;;;;;;;15.93;3.28;;;;;;;11.04;100.00;101208.06;5089382;28;20429;-82
2022/11/25 10:47:14;;;;;;;19.52;3.30;;;;;;;11.10;100.00;101200.38;5098026;28;20035;-81
2022/11/25 10:50:13;;;;;;;16.10;3.55;;;;;;;11.26;100.00;101213.78;5068755;28;20033;-82
2022/11/25 10:52:53;;;;;;;14.63;2.88;;;;;;;11.24;100.00;101216.66;5078437;28;20048;-82
2022/11/25 10:55:24;;;;;;;20.95;3.72;;;;;;;11.24;100.00;101208.44;5078622;28;20392;-82
2022/11/25 10:57:50;;;;;;;15.82;2.70;;;;;;;11.28;100.00;101222.78;5081528;28;20024;-82
2022/11/25 11:00:35;;;;;;;21.00;3.15;;;;;;;11.30;100.00;101215.31;5064589;28;20502;-82
2022/11/25 11:03:22;;;;;;;17.35;2.70;;;;;;;11.38;100.00;101224.69;5082109;28;20546;-82
2022/11/25 11:05:51;;;;;;;14.95;3.13;;;;;;;11.36;100.00;101226.69;5080588;28;20024;-82
2022/11/25 11:08:47;;;;;;;14.52;3.20;;;;;;;11.41;100.00;101226.31;5095526;28;20114;-82
2022/11/25 11:11:16;;;;;;;13.10;3.10;;;;;;;11.52;100.00;101222.75;5080287;28;20043;-82
2022/11/25 11:13:41;;;;;;;18.40;2.83;;;;;;;11.36;100.00;101234.03;5096977;28;20032;-83
2022/11/25 11:16:28;;;;;;;14.88;2.65;;;;;;;11.29;100.00;101238.25;5080919;28;20520;-83
2022/11/25 11:18:55;;;;;;;21.63;2.78;;;;;;;11.27;100.00;101232.00;5098095;28;20039;-82
2022/11/25 11:21:41;;;;;;;16.00;2.38;;;;;;;11.35;100.00;101240.53;5080781;28;20032;-82
2022/11/25 11:24:28;;;;;;;10.20;2.40;;;;;;;11.30;100.00;101242.75;5077920;28;20028;-82
2022/11/25 11:27:21;;;;;;;15.40;2.88;;;;;;;11.31;100.00;101247.22;5077043;28;20028;-82
2022/11/25 11:29:47;;;;;;;;;;;;;;;11.49;100.00;101259.50;5060040;28;20484;-83
2022/11/25 11:32:23;;;;;;;15.68;2.80;;;;;;;11.43;100.00;101260.00;5061666;28;19959;-84
2022/11/25 11:35:37;;;;;;;13.70;2.08;;;;;;;11.37;100.00;101252.22;5088766;28;20467;-82
2022/11/25 11:38:28;;;;;;;23.95;3.00;;;;;;;11.42;100.00;101260.97;5004422;28;20037;-82